Time;durP1;ratioP1;P1;durP2;ratioP2;P2;SDS_P1;SDS_P2;PMS_P1;PMS_P2;Temp;Humidity;BMP_temperature;BMP_pressure;BME280_temperature;BME280_humidity;BME280_pressure;Samples;Min_cycle;Max_cycle;Signal;HPM_P1;HPM_P2
2023/05/07 00:02:16;;;;;;;28.33;19.97;;;;;;;11.28;100.00;94883.41;5068650;28;20217;-82
2023/05/07 00:04:43;;;;;;;34.83;19.53;;;;;;;11.31;100.00;94873.34;5074422;28;20227;-82
2023/05/07 00:07:16;;;;;;;28.20;18.03;;;;;;;11.38;100.00;94874.06;5061013;28;20660;-83
2023/05/07 00:09:43;;;;;;;30.00;17.47;;;;;;;11.35;100.00;94861.50;5059279;28;20213;-82
2023/05/07 00:12:11;;;;;;;23.90;16.83;;;;;;;11.38;100.00;94870.69;5062334;28;20743;-82
2023/05/07 00:14:38;;;;;;;25.57;17.13;;;;;;;11.37;100.00;94858.66;5059716;28;20230;-81
2023/05/07 00:17:05;;;;;;;24.40;16.27;;;;;;;11.36;100.00;94863.09;5072314;28;20193;-83
2023/05/07 00:19:32;;;;;;;28.00;17.53;;;;;;;11.36;100.00;94857.91;5071991;28;20262;-82
2023/05/07 00:21:59;;;;;;;27.57;17.20;;;;;;;11.38;100.00;94853.25;5067941;28;20221;-82
2023/05/07 00:24:25;;;;;;;26.97;15.60;;;;;;;11.33;100.00;94854.94;5069164;28;20284;-82
2023/05/07 00:26:53;;;;;;;19.77;13.23;;;;;;;11.11;100.00;94846.75;5072875;28;20208;-82
2023/05/07 00:29:21;;;;;;;24.57;14.33;;;;;;;11.08;100.00;94849.78;5069600;28;20289;-81
2023/05/07 00:31:49;;;;;;;27.83;14.67;;;;;;;11.12;100.00;94858.75;5068033;28;20206;-81
2023/05/07 00:34:16;;;;;;;21.17;13.90;;;;;;;11.14;100.00;94864.50;5069046;28;20201;-81
2023/05/07 00:36:43;;;;;;;27.23;15.07;;;;;;;11.11;100.00;94864.19;5072150;28;20201;-81
2023/05/07 00:39:10;;;;;;;19.23;13.20;;;;;;;11.14;100.00;94866.34;5071240;28;20280;-81
2023/05/07 00:41:37;;;;;;;14.70;11.00;;;;;;;11.13;100.00;94864.75;5070816;28;20315;-82
2023/05/07 00:44:04;;;;;;;22.13;13.60;;;;;;;11.14;100.00;94869.72;5067816;28;20206;-83
2023/05/07 00:46:33;;;;;;;19.63;13.03;;;;;;;11.13;100.00;94864.75;5067999;28;20201;-82
2023/05/07 00:49:00;;;;;;;20.00;13.20;;;;;;;11.12;100.00;94868.34;5072244;28;20196;-82
2023/05/07 00:51:28;;;;;;;21.57;13.53;;;;;;;11.08;100.00;94867.22;5067524;28;20198;-83
2023/05/07 00:53:55;;;;;;;18.83;13.87;;;;;;;10.95;100.00;94854.31;5069075;28;20245;-82
2023/05/07 00:56:22;;;;;;;22.90;13.83;;;;;;;11.01;100.00;94872.47;5073012;28;20255;-82
2023/05/07 00:58:49;;;;;;;21.50;13.83;;;;;;;11.02;100.00;94863.66;5069261;28;20678;-83
2023/05/07 01:01:16;;;;;;;20.37;13.37;;;;;;;10.99;100.00;94869.28;5071168;28;20229;-82
2023/05/07 01:03:44;;;;;;;20.50;13.00;;;;;;;10.95;100.00;94870.72;5074628;28;20219;-83
2023/05/07 01:06:12;;;;;;;19.30;13.50;;;;;;;10.96;100.00;94864.53;5071947;28;20580;-83
2023/05/07 01:08:40;;;;;;;18.53;13.17;;;;;;;10.87;100.00;94862.41;5071414;28;20721;-83
2023/05/07 01:11:07;;;;;;;18.90;12.23;;;;;;;10.70;100.00;94862.94;5073157;28;20252;-82
2023/05/07 01:13:35;;;;;;;18.27;12.40;;;;;;;10.41;100.00;94861.00;5071067;28;20202;-82
2023/05/07 01:16:02;;;;;;;19.23;11.63;;;;;;;10.15;100.00;94863.78;5075960;28;20287;-84
2023/05/07 01:18:29;;;;;;;21.33;13.30;;;;;;;10.09;100.00;94870.56;5070905;28;20794;-84
2023/05/07 01:21:00;;;;;;;21.00;13.00;;;;;;;10.07;100.00;94864.75;5068059;28;20202;-83
2023/05/07 01:23:28;;;;;;;20.03;12.70;;;;;;;10.16;100.00;94871.34;5070602;28;20235;-83
2023/05/07 01:25:55;;;;;;;19.07;12.57;;;;;;;10.12;100.00;94859.75;5071688;28;20667;-84
2023/05/07 01:28:22;;;;;;;20.37;12.53;;;;;;;10.22;100.00;94862.72;5069568;28;20972;-84
2023/05/07 01:31:05;;;;;;;24.50;13.07;;;;;;;10.34;100.00;94864.63;5069977;28;20731;-84
2023/05/07 01:33:36;;;;;;;18.90;12.40;;;;;;;10.41;100.00;94873.19;5073766;28;20197;-82
2023/05/07 01:36:06;;;;;;;19.70;12.53;;;;;;;10.42;100.00;94861.78;5072954;28;20197;-82
2023/05/07 01:38:34;;;;;;;15.83;11.57;;;;;;;10.38;100.00;94865.81;5072275;28;20284;-81
2023/05/07 01:41:02;;;;;;;18.37;12.10;;;;;;;10.37;100.00;94859.00;5072206;28;20198;-81
2023/05/07 01:43:29;;;;;;;18.83;11.67;;;;;;;10.39;100.00;94852.59;5068514;28;20193;-81
2023/05/07 01:45:58;;;;;;;17.10;11.43;;;;;;;10.34;100.00;94849.03;5069160;28;20201;-81
2023/05/07 01:48:25;;;;;;;16.30;11.17;;;;;;;10.40;100.00;94853.38;5071315;28;20205;-81
2023/05/07 01:50:53;;;;;;;13.93;10.73;;;;;;;10.43;100.00;94850.38;5075991;28;20193;-77
2023/05/07 01:53:19;;;;;;;20.13;11.77;;;;;;;10.34;100.00;94843.84;5071245;28;20255;-77
2023/05/07 01:55:48;;;;;;;14.93;10.20;;;;;;;10.34;100.00;94847.25;5074989;28;20197;-77
2023/05/07 01:58:14;;;;;;;21.00;11.37;;;;;;;10.33;100.00;94842.28;5073795;28;20198;-78
2023/05/07 02:00:41;;;;;;;18.67;11.03;;;;;;;10.36;100.00;94837.41;5072220;28;20189;-77
2023/05/07 02:03:09;;;;;;;16.37;11.40;;;;;;;10.35;100.00;94835.84;5075659;28;20217;-78
2023/05/07 02:05:35;;;;;;;15.97;11.50;;;;;;;10.33;100.00;94834.47;5069750;28;20226;-76
2023/05/07 02:08:02;;;;;;;20.00;13.50;;;;;;;10.25;100.00;94832.91;5075252;28;20197;-78
2023/05/07 02:10:29;;;;;;;21.73;14.10;;;;;;;10.36;100.00;94832.22;5070473;28;20201;-76
2023/05/07 02:12:57;;;;;;;21.57;13.50;;;;;;;10.34;100.00;94833.44;5070027;28;20289;-76
2023/05/07 02:15:24;;;;;;;22.23;13.93;;;;;;;10.35;100.00;94819.47;5067332;28;20225;-77
2023/05/07 02:18:01;;;;;;;27.90;15.80;;;;;;;10.25;100.00;94820.72;5074514;28;20202;-80
2023/05/07 02:20:28;;;;;;;27.73;17.83;;;;;;;10.27;100.00;94822.34;5072465;28;20193;-80
2023/05/07 02:22:55;;;;;;;24.47;15.93;;;;;;;10.18;100.00;94827.78;5071026;28;20257;-77
2023/05/07 02:25:22;;;;;;;25.50;15.37;;;;;;;10.18;100.00;94830.38;5071333;28;20209;-78
2023/05/07 02:27:48;;;;;;;22.73;14.57;;;;;;;10.13;100.00;94827.59;5069966;28;20201;-77
2023/05/07 02:30:17;;;;;;;24.23;14.13;;;;;;;10.15;100.00;94820.41;5069187;28;20197;-77
2023/05/07 02:32:44;;;;;;;20.57;13.90;;;;;;;10.16;100.00;94827.19;5076836;28;20576;-77
2023/05/07 02:35:10;;;;;;;22.47;13.83;;;;;;;10.14;100.00;94831.81;5077697;28;20258;-82
2023/05/07 02:37:37;;;;;;;21.07;13.53;;;;;;;10.16;100.00;94823.78;5067705;28;21112;-81
2023/05/07 02:40:05;;;;;;;21.60;13.53;;;;;;;10.15;100.00;94828.22;5078038;28;21100;-81
2023/05/07 02:42:32;;;;;;;22.07;13.80;;;;;;;10.05;100.00;94830.44;5072279;28;20216;-81
2023/05/07 02:44:59;;;;;;;20.83;13.30;;;;;;;10.08;100.00;94834.41;5070816;28;20193;-80
2023/05/07 02:47:28;;;;;;;16.80;12.47;;;;;;;10.05;100.00;94832.22;5070658;28;20291;-81
2023/05/07 02:49:55;;;;;;;17.73;12.73;;;;;;;9.87;100.00;94830.34;5071168;28;20201;-82
2023/05/07 02:52:21;;;;;;;22.13;13.37;;;;;;;9.65;100.00;94822.09;5070259;28;20201;-82
2023/05/07 02:54:48;;;;;;;19.13;12.50;;;;;;;9.51;100.00;94822.34;5069295;28;20750;-82
2023/05/07 02:57:15;;;;;;;22.87;12.87;;;;;;;9.39;100.00;94829.19;5071548;28;20251;-82
2023/05/07 02:59:42;;;;;;;22.23;13.27;;;;;;;9.41;100.00;94837.56;5066540;28;20288;-80
2023/05/07 03:02:09;;;;;;;21.50;13.63;;;;;;;9.48;100.00;94836.53;5068888;28;20240;-80
2023/05/07 03:04:39;;;;;;;18.50;12.97;;;;;;;9.54;100.00;94830.53;5074669;28;20201;-82
2023/05/07 03:07:05;;;;;;;20.47;13.23;;;;;;;9.57;100.00;94835.31;5069944;28;20213;-81
2023/05/07 03:09:32;;;;;;;19.50;13.27;;;;;;;9.68;100.00;94839.84;5070661;28;20198;-83
2023/05/07 03:11:59;;;;;;;17.67;12.60;;;;;;;9.73;100.00;94835.81;5071697;28;20253;-82
2023/05/07 03:14:26;;;;;;;23.03;12.50;;;;;;;9.79;100.00;94838.38;5070209;28;20229;-81
2023/05/07 03:16:52;;;;;;;21.77;12.73;;;;;;;9.82;100.00;94845.75;5068581;28;20217;-83
2023/05/07 03:19:19;;;;;;;20.43;12.67;;;;;;;9.77;100.00;94835.19;5076101;28;20201;-82
2023/05/07 03:21:47;;;;;;;18.17;11.97;;;;;;;9.74;100.00;94832.22;5069951;28;20220;-82
2023/05/07 03:24:14;;;;;;;19.77;12.57;;;;;;;9.80;100.00;94842.56;5068191;28;20206;-82
2023/05/07 03:26:41;;;;;;;17.93;12.73;;;;;;;9.84;100.00;94851.50;5075074;28;20240;-81
2023/05/07 03:29:08;;;;;;;19.97;12.33;;;;;;;9.86;100.00;94852.13;5070577;28;20197;-82
2023/05/07 03:31:34;;;;;;;21.67;13.97;;;;;;;9.95;100.00;94852.69;5069606;28;20270;-82
2023/05/07 03:34:01;;;;;;;22.27;13.70;;;;;;;9.90;100.00;94849.91;5070626;28;20209;-82
2023/05/07 03:36:28;;;;;;;23.23;13.77;;;;;;;9.80;100.00;94857.34;5073972;28;20576;-80
2023/05/07 03:38:56;;;;;;;23.47;14.60;;;;;;;9.76;100.00;94862.16;5068923;28;20336;-80
2023/05/07 03:41:23;;;;;;;20.27;13.80;;;;;;;9.77;100.00;94858.56;5076271;28;20722;-81
2023/05/07 03:43:50;;;;;;;24.90;14.23;;;;;;;9.79;100.00;94863.53;5068144;28;20217;-82
2023/05/07 03:46:17;;;;;;;22.30;14.47;;;;;;;9.76;100.00;94851.75;5068206;28;20208;-81
2023/05/07 03:48:43;;;;;;;21.73;14.23;;;;;;;9.82;100.00;94868.31;5072104;28;20209;-77
2023/05/07 03:51:10;;;;;;;21.33;14.20;;;;;;;9.79;100.00;94864.31;5070311;28;20208;-77
2023/05/07 03:53:37;;;;;;;22.50;13.63;;;;;;;9.79;100.00;94879.91;5069040;28;20235;-77
2023/05/07 03:56:05;;;;;;;20.13;13.73;;;;;;;9.82;100.00;94865.72;5073986;28;20220;-77
2023/05/07 03:58:32;;;;;;;19.67;13.73;;;;;;;9.81;100.00;94869.31;5067632;28;20193;-78
2023/05/07 04:00:59;;;;;;;19.13;13.53;;;;;;;9.83;100.00;94870.72;5069854;28;20217;-76
2023/05/07 04:03:26;;;;;;;23.07;14.30;;;;;;;9.86;100.00;94878.09;5074807;28;20220;-78
2023/05/07 04:05:52;;;;;;;31.10;13.97;;;;;;;9.88;100.00;94877.88;5067659;28;20658;-78
2023/05/07 04:08:19;;;;;;;24.17;14.20;;;;;;;9.97;100.00;94885.22;5066114;28;21848;-78
2023/05/07 04:10:46;;;;;;;23.47;14.23;;;;;;;9.98;100.00;94897.19;5069759;28;20197;-78
2023/05/07 04:13:14;;;;;;;24.37;14.07;;;;;;;10.00;100.00;94896.97;5067414;28;20671;-77
2023/05/07 04:15:41;;;;;;;20.80;14.53;;;;;;;10.05;100.00;94899.72;5065291;28;20833;-77
2023/05/07 04:18:08;;;;;;;21.40;12.57;;;;;;;9.93;100.00;94904.78;5072876;28;20694;-77
2023/05/07 04:20:36;;;;;;;20.37;12.07;;;;;;;9.77;100.00;94889.69;5066173;28;20205;-77
2023/05/07 04:23:03;;;;;;;18.30;12.27;;;;;;;9.95;100.00;94910.59;5067956;28;20286;-77
2023/05/07 04:25:30;;;;;;;17.20;11.57;;;;;;;9.79;100.00;94912.84;5070624;28;20201;-77
2023/05/07 04:27:57;;;;;;;17.27;12.23;;;;;;;9.84;100.00;94916.41;5072728;28;20199;-78
2023/05/07 04:30:25;;;;;;;22.07;12.20;;;;;;;9.77;100.00;94915.66;5073133;28;20215;-76
2023/05/07 04:32:52;;;;;;;18.07;12.83;;;;;;;9.66;100.00;94904.13;5084576;28;20192;-76
2023/05/07 04:35:20;;;;;;;19.30;12.83;;;;;;;9.65;100.00;94919.88;5076976;28;20216;-77
2023/05/07 04:37:46;;;;;;;19.70;13.33;;;;;;;9.53;100.00;94927.50;5071631;28;20205;-77
2023/05/07 04:40:14;;;;;;;20.90;13.80;;;;;;;9.52;100.00;94925.91;5080601;28;20193;-78
2023/05/07 04:42:44;;;;;;;20.60;13.67;;;;;;;9.43;100.00;94915.97;5073524;28;20309;-79
2023/05/07 04:45:12;;;;;;;24.63;14.70;;;;;;;9.64;100.00;94923.47;5074401;28;20198;-76
2023/05/07 04:51:19;;;;;;;19.97;12.97;;;;;;;9.83;100.00;94899.25;5070755;28;20280;-78
2023/05/07 04:56:43;;;;;;;18.90;13.27;;;;;;;10.27;100.00;94923.63;5066099;28;20208;-79
2023/05/07 04:59:10;;;;;;;19.03;12.80;;;;;;;10.40;100.00;94915.75;5079899;28;20258;-77
2023/05/07 05:01:37;;;;;;;22.27;13.40;;;;;;;10.50;100.00;94914.28;5079529;28;20205;-78
2023/05/07 05:04:04;;;;;;;18.77;13.07;;;;;;;10.59;100.00;94920.03;5079351;28;20228;-78
2023/05/07 05:06:32;;;;;;;20.80;13.60;;;;;;;10.67;100.00;94919.75;5079976;28;20578;-77
2023/05/07 05:09:01;;;;;;;20.67;13.47;;;;;;;10.68;100.00;94913.53;5078516;28;20254;-77
2023/05/07 05:11:28;;;;;;;22.13;13.17;;;;;;;10.78;100.00;94919.06;5071469;28;20666;-78
2023/05/07 05:13:55;;;;;;;21.10;13.30;;;;;;;10.86;100.00;94918.00;5078654;28;20193;-77
2023/05/07 05:16:22;;;;;;;17.73;12.60;;;;;;;11.02;100.00;94926.06;5067274;28;20221;-78
2023/05/07 05:18:49;;;;;;;21.00;13.43;;;;;;;11.11;100.00;94924.00;5063775;28;20193;-76
2023/05/07 05:21:15;;;;;;;19.87;13.33;;;;;;;10.94;100.00;94904.75;5067865;28;20735;-77
2023/05/07 05:23:43;;;;;;;19.27;13.30;;;;;;;11.07;100.00;94913.22;5068815;28;20217;-77
2023/05/07 05:26:10;;;;;;;17.37;13.00;;;;;;;11.16;100.00;94922.34;5062337;28;20229;-77
2023/05/07 05:28:37;;;;;;;20.97;13.80;;;;;;;11.33;100.00;94922.56;5066480;28;20197;-76
2023/05/07 05:31:04;;;;;;;19.80;13.60;;;;;;;11.37;100.00;94915.91;5066255;28;21327;-77
2023/05/07 05:33:31;;;;;;;23.77;14.50;;;;;;;11.45;100.00;94926.06;5061181;28;20189;-77
2023/05/07 05:35:57;;;;;;;20.63;13.47;;;;;;;11.52;100.00;94926.78;5069779;28;20197;-77
2023/05/07 05:38:25;;;;;;;21.30;13.53;;;;;;;11.60;100.00;94929.06;5067530;28;20292;-78
2023/05/07 05:40:53;;;;;;;20.63;12.93;;;;;;;11.66;100.00;94930.81;5062890;28;20208;-77
2023/05/07 05:43:20;;;;;;;18.83;13.50;;;;;;;11.73;100.00;94936.00;5062352;28;20218;-77
2023/05/07 05:45:47;;;;;;;20.83;13.23;;;;;;;11.80;100.00;94929.69;5062549;28;20202;-78
2023/05/07 05:48:14;;;;;;;19.83;13.53;;;;;;;11.85;100.00;94922.03;5056462;28;20201;-78
2023/05/07 05:50:40;;;;;;;21.00;14.33;;;;;;;11.94;100.00;94917.31;5059773;28;20201;-77
2023/05/07 05:53:07;;;;;;;25.87;17.13;;;;;;;12.03;100.00;94929.03;5063540;28;21252;-76
2023/05/07 05:55:34;;;;;;;17.60;13.00;;;;;;;12.17;100.00;94929.66;5059061;28;20208;-76
2023/05/07 05:58:02;;;;;;;22.83;12.43;;;;;;;12.19;100.00;94928.41;5057806;28;20198;-77
2023/05/07 06:00:30;;;;;;;18.20;12.40;;;;;;;12.22;100.00;94927.16;5061794;28;20200;-76
2023/05/07 06:02:56;;;;;;;20.07;12.20;;;;;;;12.30;100.00;94932.88;5055967;28;20218;-77
2023/05/07 06:05:23;;;;;;;17.43;12.23;;;;;;;12.39;100.00;94925.53;5059145;28;20764;-77
2023/05/07 06:07:50;;;;;;;19.63;13.53;;;;;;;12.47;100.00;94922.59;5061282;28;20206;-77
2023/05/07 06:10:17;;;;;;;32.07;19.20;;;;;;;12.51;100.00;94927.16;5060814;28;20206;-80
2023/05/07 06:12:44;;;;;;;31.00;14.43;;;;;;;12.52;100.00;94920.13;5060053;28;20195;-77
2023/05/07 06:15:12;;;;;;;16.83;12.10;;;;;;;12.70;100.00;94921.88;5056060;28;20230;-77
2023/05/07 06:17:39;;;;;;;18.57;12.30;;;;;;;12.76;100.00;94934.00;5047925;28;20666;-78
2023/05/07 06:20:07;;;;;;;15.63;12.40;;;;;;;12.86;100.00;94924.63;5050802;28;20213;-80
2023/05/07 06:22:34;;;;;;;20.80;11.97;;;;;;;12.90;100.00;94930.19;5059217;28;20260;-79
2023/05/07 06:25:01;;;;;;;22.37;12.50;;;;;;;12.92;100.00;94922.94;5049839;28;20206;-81
2023/05/07 06:27:28;;;;;;;17.47;11.40;;;;;;;13.08;100.00;94928.31;5057969;28;20331;-78
2023/05/07 06:29:55;;;;;;;18.43;12.23;;;;;;;13.13;100.00;94919.00;5054867;28;20288;-80
2023/05/07 06:32:23;;;;;;;15.73;11.13;;;;;;;13.15;100.00;94916.97;5048912;28;20201;-79
2023/05/07 06:34:50;;;;;;;16.17;11.70;;;;;;;13.23;98.83;94914.00;5057875;28;20216;-81
2023/05/07 06:37:16;;;;;;;19.03;12.57;;;;;;;13.32;98.52;94915.25;5063184;28;20198;-80
2023/05/07 06:39:43;;;;;;;16.33;12.10;;;;;;;13.33;98.95;94896.72;5056753;28;20209;-80
2023/05/07 06:42:10;;;;;;;18.07;11.97;;;;;;;13.43;98.79;94907.41;5055944;28;20703;-79
2023/05/07 06:44:37;;;;;;;18.83;12.33;;;;;;;13.46;98.52;94903.53;5059697;28;20221;-78
2023/05/07 06:47:05;;;;;;;19.73;12.63;;;;;;;13.52;98.18;94894.78;5042898;28;20210;-80
2023/05/07 06:49:33;;;;;;;18.57;11.83;;;;;;;13.60;98.90;94897.03;5046436;28;20210;-79
2023/05/07 06:52:00;;;;;;;14.47;11.10;;;;;;;13.72;97.41;94892.59;5043583;28;20649;-78
2023/05/07 06:54:26;;;;;;;17.87;11.33;;;;;;;13.81;96.40;94898.25;5056332;28;20190;-78
2023/05/07 06:56:53;;;;;;;16.63;11.53;;;;;;;13.86;96.19;94895.72;5055444;28;20210;-79
2023/05/07 06:59:20;;;;;;;16.47;11.20;;;;;;;13.90;96.59;94894.25;5051238;28;20198;-79
2023/05/07 07:01:47;;;;;;;20.23;12.03;;;;;;;13.97;96.19;94898.31;5037728;28;20198;-79
2023/05/07 07:04:13;;;;;;;16.83;10.90;;;;;;;13.94;96.29;94896.16;5060323;28;20225;-84
2023/05/07 07:06:42;;;;;;;19.10;11.07;;;;;;;14.07;95.32;94906.34;5047366;28;20198;-79
2023/05/07 07:09:08;;;;;;;18.80;11.77;;;;;;;14.09;94.10;94885.19;5035212;28;20562;-79
2023/05/07 07:11:36;;;;;;;15.97;10.77;;;;;;;14.24;93.51;94903.78;5036100;28;20235;-80
2023/05/07 07:14:02;;;;;;;14.13;10.77;;;;;;;14.32;92.93;94894.75;5047954;28;20201;-83
2023/05/07 07:16:29;;;;;;;18.37;11.33;;;;;;;14.37;92.46;94890.44;5068843;28;20193;-75
2023/05/07 07:18:56;;;;;;;17.47;10.73;;;;;;;14.41;93.02;94883.72;5070245;28;20271;-77
2023/05/07 07:21:23;;;;;;;15.87;11.73;;;;;;;14.49;93.00;94898.22;5060067;28;20194;-78
2023/05/07 07:23:51;;;;;;;14.63;10.17;;;;;;;14.49;92.40;94874.69;5060316;28;20275;-85
2023/05/07 07:26:18;;;;;;;19.60;11.03;;;;;;;14.58;92.32;94879.31;5060493;28;20671;-78
2023/05/07 07:28:46;;;;;;;15.60;10.33;;;;;;;14.72;91.67;94888.44;5067759;28;20211;-79
2023/05/07 07:31:13;;;;;;;15.63;10.60;;;;;;;14.78;91.33;94884.06;5053009;28;20911;-79
2023/05/07 07:33:40;;;;;;;18.17;10.50;;;;;;;14.88;90.95;94892.09;5066488;28;20243;-79
2023/05/07 07:36:07;;;;;;;15.43;10.87;;;;;;;14.96;88.92;94880.41;5063866;28;20225;-78
2023/05/07 07:38:34;;;;;;;13.63;10.43;;;;;;;15.16;88.01;94893.81;5067176;28;20206;-78
2023/05/07 07:41:03;;;;;;;22.20;11.57;;;;;;;15.21;87.47;94893.88;5051666;28;20197;-78
2023/05/07 07:43:30;;;;;;;17.77;10.80;;;;;;;15.26;87.77;94897.38;5059767;28;20255;-79
2023/05/07 07:45:56;;;;;;;14.97;10.47;;;;;;;15.39;87.97;94898.06;5062921;28;20200;-78
2023/05/07 07:48:23;;;;;;;15.70;9.90;;;;;;;15.44;86.01;94896.28;5056945;28;20214;-79
2023/05/07 07:50:51;;;;;;;14.70;9.70;;;;;;;15.47;85.89;94895.06;5062140;28;20255;-78
2023/05/07 07:53:18;;;;;;;15.87;10.47;;;;;;;15.58;85.27;94910.69;5056648;28;20716;-78
2023/05/07 07:55:44;;;;;;;12.63;9.03;;;;;;;15.63;85.25;94902.09;5056065;28;20202;-81
2023/05/07 07:58:13;;;;;;;17.00;10.83;;;;;;;15.69;85.27;94893.25;5055718;28;20202;-80
2023/05/07 08:00:39;;;;;;;20.17;11.40;;;;;;;15.69;85.19;94883.56;5070718;28;20189;-79
2023/05/07 08:03:07;;;;;;;19.90;11.33;;;;;;;15.93;85.36;94894.56;5062178;28;20213;-79
2023/05/07 08:05:33;;;;;;;15.13;11.00;;;;;;;16.01;85.36;94894.16;5054000;28;20201;-79
2023/05/07 08:08:00;;;;;;;16.67;10.90;;;;;;;16.09;84.90;94898.97;5055299;28;20646;-79
2023/05/07 08:10:27;;;;;;;15.50;10.53;;;;;;;16.12;84.61;94887.19;5058462;28;20850;-80
2023/05/07 08:12:54;;;;;;;13.57;10.17;;;;;;;16.25;84.13;94897.28;5064703;28;20282;-85
2023/05/07 08:15:22;;;;;;;16.43;10.90;;;;;;;16.35;84.19;94903.44;5059669;28;20233;-85
2023/05/07 08:17:49;;;;;;;14.93;10.60;;;;;;;16.42;84.43;94893.53;5070953;28;20204;-86
2023/05/07 08:20:15;;;;;;;13.93;10.10;;;;;;;16.53;82.29;94891.03;5073557;28;20195;-85
2023/05/07 08:22:42;;;;;;;14.37;9.97;;;;;;;16.64;81.35;94895.34;5075012;28;20193;-85
2023/05/07 08:25:10;;;;;;;13.50;9.67;;;;;;;16.72;80.26;94895.69;5068436;28;20237;-86
2023/05/07 08:27:36;;;;;;;12.33;9.53;;;;;;;16.81;80.13;94896.03;5068369;28;20219;-85
2023/05/07 08:30:05;;;;;;;15.70;9.10;;;;;;;16.88;80.36;94888.75;5056128;28;20235;-85
2023/05/07 08:32:33;;;;;;;15.03;9.27;;;;;;;16.96;80.47;94889.06;5061340;28;20217;-85
2023/05/07 08:35:01;;;;;;;12.90;8.60;;;;;;;17.12;77.70;94889.16;5075881;28;20246;-85
2023/05/07 08:37:28;;;;;;;12.93;8.40;;;;;;;17.28;76.56;94888.22;5066386;28;20193;-85
2023/05/07 08:39:55;;;;;;;13.10;9.27;;;;;;;17.32;76.29;94884.03;5070236;28;20262;-85
2023/05/07 08:42:24;;;;;;;13.40;9.40;;;;;;;17.33;76.82;94878.53;5064661;28;20723;-86
2023/05/07 08:44:52;;;;;;;15.00;9.93;;;;;;;17.41;77.36;94870.16;5056486;28;20226;-85
2023/05/07 08:47:20;;;;;;;20.25;8.95;;;;;;;17.51;76.75;94875.50;5066565;28;20268;-85
2023/05/07 08:49:49;;;;;;;14.20;8.88;;;;;;;17.61;76.00;94874.78;5077190;28;20212;-85
2023/05/07 08:52:16;;;;;;;17.77;8.40;;;;;;;17.73;76.04;94875.34;5062952;28;20204;-85
2023/05/07 08:54:43;;;;;;;15.05;8.60;;;;;;;17.90;75.87;94880.41;5064247;28;20204;-84
2023/05/07 08:57:10;;;;;;;13.93;8.63;;;;;;;18.05;75.58;94868.13;5058940;28;20202;-84
2023/05/07 08:59:37;;;;;;;18.17;8.45;;;;;;;18.11;74.04;94853.13;5060171;28;20239;-85
2023/05/07 09:02:05;;;;;;;15.05;8.77;;;;;;;18.30;72.83;94866.56;5060555;28;20229;-84
2023/05/07 09:04:32;;;;;;;12.48;7.60;;;;;;;18.44;72.54;94872.94;5060494;28;20275;-85
2023/05/07 09:07:05;;;;;;;11.30;8.73;;;;;;;18.49;71.26;94868.50;5053580;28;20284;-84
2023/05/07 09:09:33;;;;;;;12.13;8.32;;;;;;;18.59;70.77;94865.06;5062529;28;20193;-85
2023/05/07 09:12:01;;;;;;;10.98;8.00;;;;;;;18.68;71.15;94863.50;5069366;28;20205;-84
2023/05/07 09:14:28;;;;;;;17.08;7.72;;;;;;;18.79;70.79;94864.31;5065792;28;20221;-84
2023/05/07 09:16:55;;;;;;;10.73;7.90;;;;;;;18.96;69.97;94852.44;5069546;28;20202;-85
2023/05/07 09:19:24;;;;;;;12.07;7.80;;;;;;;19.07;68.74;94858.50;5073266;28;20577;-84
2023/05/07 09:21:51;;;;;;;10.52;7.60;;;;;;;19.20;67.48;94850.03;5070929;28;20263;-84
2023/05/07 09:24:19;;;;;;;9.23;7.32;;;;;;;19.25;67.93;94845.56;5070041;28;20628;-85
2023/05/07 09:26:46;;;;;;;13.30;7.07;;;;;;;19.36;67.03;94842.91;5071357;28;20198;-79
2023/05/07 09:29:12;;;;;;;14.90;6.93;;;;;;;19.57;65.32;94852.34;5062943;28;20201;-79
2023/05/07 09:31:40;;;;;;;9.88;6.80;;;;;;;19.74;64.48;94850.97;5067785;28;20694;-79
2023/05/07 09:34:07;;;;;;;12.98;7.10;;;;;;;19.81;64.53;94853.34;5063332;28;20209;-78
2023/05/07 09:36:34;;;;;;;16.25;7.22;;;;;;;19.96;63.22;94848.00;5066302;28;20202;-77
2023/05/07 09:39:01;;;;;;;13.73;6.88;;;;;;;20.13;62.96;94843.16;5064428;28;20582;-79
2023/05/07 09:41:31;;;;;;;12.38;6.85;;;;;;;20.28;62.68;94845.75;5060236;28;20214;-78
2023/05/07 09:44:00;;;;;;;10.00;6.50;;;;;;;20.52;62.16;94845.84;5060030;28;20286;-79
2023/05/07 09:46:30;;;;;;;9.93;6.90;;;;;;;20.76;62.42;94851.22;5065834;28;20198;-78
2023/05/07 09:48:59;;;;;;;9.90;6.15;;;;;;;20.96;60.91;94851.06;5057061;28;20193;-78
2023/05/07 09:51:31;;;;;;;8.82;6.18;;;;;;;21.11;59.24;94848.31;5067709;28;20244;-78
2023/05/07 09:54:00;;;;;;;6.95;5.85;;;;;;;21.26;57.89;94839.44;5064399;28;20193;-78
2023/05/07 09:56:27;;;;;;;9.88;5.50;;;;;;;21.50;57.15;94841.03;5070793;28;20232;-78
2023/05/07 09:59:00;;;;;;;7.65;5.38;;;;;;;21.65;56.28;94839.28;5070787;28;20570;-78
2023/05/07 10:01:28;;;;;;;7.75;5.43;;;;;;;21.75;56.04;94844.47;5068409;28;20659;-79
2023/05/07 10:03:56;;;;;;;9.88;5.00;;;;;;;21.93;55.74;94843.78;5070534;28;20731;-79
2023/05/07 10:06:25;;;;;;;5.90;5.05;;;;;;;22.19;55.41;94829.13;5073311;28;20194;-79
2023/05/07 10:08:52;;;;;;;8.25;4.97;;;;;;;22.44;53.33;94833.28;5070784;28;20262;-78
2023/05/07 10:11:20;;;;;;;8.88;5.25;;;;;;;22.66;53.68;94830.03;5074548;28;20198;-78
2023/05/07 10:13:47;;;;;;;8.35;5.40;;;;;;;22.79;52.96;94834.63;5075872;28;20193;-79
2023/05/07 10:16:15;;;;;;;8.70;5.00;;;;;;;22.68;51.46;94818.09;5069565;28;20229;-79
2023/05/07 10:18:43;;;;;;;7.13;5.55;;;;;;;22.81;50.57;94835.13;5064145;28;20197;-78
2023/05/07 10:21:15;;;;;;;6.57;5.18;;;;;;;22.76;49.45;94837.84;5080538;28;20639;-79
2023/05/07 10:23:46;;;;;;;7.65;4.32;;;;;;;22.73;47.63;94831.28;5069170;28;20189;-79
2023/05/07 10:26:15;;;;;;;7.82;4.00;;;;;;;22.69;47.77;94832.91;5066785;28;20205;-78
2023/05/07 10:28:44;;;;;;;6.68;4.43;;;;;;;22.65;47.36;94823.97;5073938;28;20228;-78
2023/05/07 10:31:48;;;;;;;6.13;4.47;;;;;;;22.75;47.68;94820.38;5067050;28;20216;-79
2023/05/07 10:34:25;;;;;;;7.18;4.65;;;;;;;22.86;46.22;94806.66;5069859;28;20564;-78
2023/05/07 10:36:53;;;;;;;6.68;4.45;;;;;;;23.01;47.18;94809.06;5065306;28;20209;-78
2023/05/07 10:39:21;;;;;;;8.25;3.95;;;;;;;23.14;45.25;94805.63;5072449;28;20277;-78
2023/05/07 10:41:48;;;;;;;5.78;4.30;;;;;;;23.15;44.58;94796.59;5069111;28;20574;-78
2023/05/07 10:44:27;;;;;;;6.35;5.28;;;;;;;23.22;45.58;94787.47;5069407;28;20228;-77
2023/05/07 10:47:10;;;;;;;8.23;4.88;;;;;;;23.32;46.16;94804.00;5074543;28;20283;-84
2023/05/07 10:49:37;;;;;;;7.18;4.82;;;;;;;23.42;45.14;94803.84;5069013;28;20206;-86
2023/05/07 10:52:16;;;;;;;5.00;4.53;;;;;;;23.59;45.59;94793.44;5068362;28;20206;-84
2023/05/07 10:54:43;;;;;;;8.70;5.00;;;;;;;23.75;44.69;94793.91;5067880;28;20300;-85
2023/05/07 10:57:36;;;;;;;10.95;5.50;;;;;;;24.07;44.97;94792.97;5069912;28;20674;-83
2023/05/07 11:00:03;;;;;;;5.43;4.53;;;;;;;24.27;44.37;94800.53;5067210;28;20245;-84
2023/05/07 11:03:08;;;;;;;6.13;4.85;;;;;;;24.45;44.41;94796.13;5068142;28;20210;-86
2023/05/07 11:05:36;;;;;;;6.95;4.50;;;;;;;24.62;44.32;94794.38;5070482;28;20222;-87
2023/05/07 11:08:04;;;;;;;7.97;4.78;;;;;;;24.75;44.07;94801.53;5073252;28;20220;-83
2023/05/07 11:10:55;;;;;;;5.65;4.43;;;;;;;25.08;41.06;94806.63;5084731;28;20196;-84
2023/05/07 11:13:44;;;;;;;5.30;4.75;;;;;;;25.13;40.02;94811.81;5064046;28;20193;-83
2023/05/07 11:16:18;;;;;;;8.05;4.70;;;;;;;25.12;40.49;94799.59;5074146;28;20225;-85
2023/05/07 11:18:52;;;;;;;6.53;4.22;;;;;;;25.32;39.71;94815.81;5070846;28;20287;-84
2023/05/07 11:21:36;;;;;;;5.22;4.20;;;;;;;25.30;40.18;94794.06;5060239;28;20336;-83
2023/05/07 11:24:04;;;;;;;7.93;4.38;;;;;;;25.54;39.42;94791.03;5070216;28;20243;-80
2023/05/07 11:26:32;;;;;;;6.88;4.45;;;;;;;25.74;39.93;94790.47;5067305;28;20688;-84
2023/05/07 11:29:00;;;;;;;4.35;3.78;;;;;;;25.85;36.82;94789.09;5067975;28;20205;-84